sensor_id;sensor_type;location;lat;lon;timestamp;P1;durP1;ratioP1;P2;durP2;ratioP2
16689;SDS011;8458;52.220;9.884;2023-03-01T00:01:30;8.17;;;7.57;;
16689;SDS011;8458;52.220;9.884;2023-03-01T00:03:57;9.30;;;8.60;;
16689;SDS011;8458;52.220;9.884;2023-03-01T00:06:25;9.70;;;9.00;;
16689;SDS011;8458;52.220;9.884;2023-03-01T00:08:52;8.87;;;8.17;;
16689;SDS011;8458;52.220;9.884;2023-03-01T00:11:21;9.40;;;8.80;;
16689;SDS011;8458;52.220;9.884;2023-03-01T00:13:49;8.30;;;7.70;;
16689;SDS011;8458;52.220;9.884;2023-03-01T00:16:18;8.50;;;7.90;;
16689;SDS011;8458;52.220;9.884;2023-03-01T00:18:46;8.90;;;8.30;;
16689;SDS011;8458;52.220;9.884;2023-03-01T00:21:12;8.67;;;7.97;;
16689;SDS011;8458;52.220;9.884;2023-03-01T00:23:39;7.87;;;7.37;;
16689;SDS011;8458;52.220;9.884;2023-03-01T00:26:06;9.17;;;8.37;;
16689;SDS011;8458;52.220;9.884;2023-03-01T00:28:36;8.80;;;8.20;;
16689;SDS011;8458;52.220;9.884;2023-03-01T00:31:03;9.10;;;8.50;;
16689;SDS011;8458;52.220;9.884;2023-03-01T00:33:30;9.60;;;8.80;;
16689;SDS011;8458;52.220;9.884;2023-03-01T00:35:57;9.03;;;8.33;;
16689;SDS011;8458;52.220;9.884;2023-03-01T00:38:24;8.60;;;8.00;;
16689;SDS011;8458;52.220;9.884;2023-03-01T00:40:51;8.73;;;8.13;;
16689;SDS011;8458;52.220;9.884;2023-03-01T00:43:17;8.60;;;7.80;;
16689;SDS011;8458;52.220;9.884;2023-03-01T00:45:45;8.03;;;7.47;;
16689;SDS011;8458;52.220;9.884;2023-03-01T00:48:11;8.97;;;8.27;;
16689;SDS011;8458;52.220;9.884;2023-03-01T00:50:38;7.93;;;7.43;;
16689;SDS011;8458;52.220;9.884;2023-03-01T00:53:04;7.93;;;7.43;;
16689;SDS011;8458;52.220;9.884;2023-03-01T00:55:31;8.67;;;8.00;;
16689;SDS011;8458;52.220;9.884;2023-03-01T00:57:57;7.47;;;6.97;;
16689;SDS011;8458;52.220;9.884;2023-03-01T01:00:24;7.63;;;7.13;;
16689;SDS011;8458;52.220;9.884;2023-03-01T01:02:53;6.97;;;6.53;;
16689;SDS011;8458;52.220;9.884;2023-03-01T01:05:19;7.70;;;7.20;;
16689;SDS011;8458;52.220;9.884;2023-03-01T01:07:46;7.90;;;7.33;;
16689;SDS011;8458;52.220;9.884;2023-03-01T01:10:13;7.80;;;7.20;;
16689;SDS011;8458;52.220;9.884;2023-03-01T01:12:42;7.63;;;7.03;;
16689;SDS011;8458;52.220;9.884;2023-03-01T01:15:09;7.80;;;7.30;;
16689;SDS011;8458;52.220;9.884;2023-03-01T01:17:38;8.27;;;7.67;;
16689;SDS011;8458;52.220;9.884;2023-03-01T01:20:06;8.03;;;7.53;;
16689;SDS011;8458;52.220;9.884;2023-03-01T01:22:34;6.97;;;6.47;;
16689;SDS011;8458;52.220;9.884;2023-03-01T01:25:00;7.73;;;7.13;;
16689;SDS011;8458;52.220;9.884;2023-03-01T01:27:27;7.70;;;7.10;;
16689;SDS011;8458;52.220;9.884;2023-03-01T01:29:53;8.30;;;7.60;;
16689;SDS011;8458;52.220;9.884;2023-03-01T01:32:20;8.27;;;7.67;;
16689;SDS011;8458;52.220;9.884;2023-03-01T01:34:46;8.20;;;7.60;;
16689;SDS011;8458;52.220;9.884;2023-03-01T01:37:14;7.33;;;6.83;;
16689;SDS011;8458;52.220;9.884;2023-03-01T01:39:41;7.77;;;7.17;;
16689;SDS011;8458;52.220;9.884;2023-03-01T01:42:09;7.97;;;7.20;;
16689;SDS011;8458;52.220;9.884;2023-03-01T01:44:42;7.80;;;7.20;;
16689;SDS011;8458;52.220;9.884;2023-03-01T01:47:12;8.00;;;7.40;;
16689;SDS011;8458;52.220;9.884;2023-03-01T01:49:42;8.47;;;7.87;;
16689;SDS011;8458;52.220;9.884;2023-03-01T01:52:13;7.43;;;6.83;;
16689;SDS011;8458;52.220;9.884;2023-03-01T01:54:46;7.30;;;6.90;;
16689;SDS011;8458;52.220;9.884;2023-03-01T01:57:18;7.60;;;7.03;;
16689;SDS011;8458;52.220;9.884;2023-03-01T01:59:49;8.07;;;7.47;;
16689;SDS011;8458;52.220;9.884;2023-03-01T02:02:18;7.73;;;7.23;;
16689;SDS011;8458;52.220;9.884;2023-03-01T02:04:45;7.53;;;6.90;;
16689;SDS011;8458;52.220;9.884;2023-03-01T02:07:15;7.20;;;6.70;;
16689;SDS011;8458;52.220;9.884;2023-03-01T02:09:45;7.30;;;6.77;;
16689;SDS011;8458;52.220;9.884;2023-03-01T02:12:13;7.47;;;6.87;;
16689;SDS011;8458;52.220;9.884;2023-03-01T02:14:40;7.23;;;6.73;;
16689;SDS011;8458;52.220;9.884;2023-03-01T02:17:07;7.97;;;7.37;;
16689;SDS011;8458;52.220;9.884;2023-03-01T02:19:40;7.63;;;7.03;;
16689;SDS011;8458;52.220;9.884;2023-03-01T02:22:18;7.63;;;7.10;;
16689;SDS011;8458;52.220;9.884;2023-03-01T02:24:50;7.47;;;6.97;;
16689;SDS011;8458;52.220;9.884;2023-03-01T02:27:28;7.97;;;7.37;;
16689;SDS011;8458;52.220;9.884;2023-03-01T02:30:03;7.37;;;6.87;;
16689;SDS011;8458;52.220;9.884;2023-03-01T02:32:30;7.40;;;6.90;;
16689;SDS011;8458;52.220;9.884;2023-03-01T02:34:56;7.70;;;7.00;;
16689;SDS011;8458;52.220;9.884;2023-03-01T02:37:23;7.73;;;7.07;;
16689;SDS011;8458;52.220;9.884;2023-03-01T02:39:54;6.83;;;6.37;;
16689;SDS011;8458;52.220;9.884;2023-03-01T02:42:26;7.17;;;6.67;;
16689;SDS011;8458;52.220;9.884;2023-03-01T02:44:56;7.10;;;6.60;;
16689;SDS011;8458;52.220;9.884;2023-03-01T02:47:24;7.20;;;6.60;;
16689;SDS011;8458;52.220;9.884;2023-03-01T02:49:51;7.50;;;7.00;;
16689;SDS011;8458;52.220;9.884;2023-03-01T02:52:21;7.50;;;7.00;;
16689;SDS011;8458;52.220;9.884;2023-03-01T02:54:58;7.97;;;7.37;;
16689;SDS011;8458;52.220;9.884;2023-03-01T02:57:28;7.40;;;6.87;;
16689;SDS011;8458;52.220;9.884;2023-03-01T02:59:57;7.50;;;7.00;;
16689;SDS011;8458;52.220;9.884;2023-03-01T03:02:28;7.40;;;6.90;;
16689;SDS011;8458;52.220;9.884;2023-03-01T03:05:03;7.17;;;6.77;;
16689;SDS011;8458;52.220;9.884;2023-03-01T03:07:31;7.90;;;7.20;;
16689;SDS011;8458;52.220;9.884;2023-03-01T03:09:58;7.60;;;7.10;;
16689;SDS011;8458;52.220;9.884;2023-03-01T03:12:24;6.93;;;6.40;;
16689;SDS011;8458;52.220;9.884;2023-03-01T03:14:51;7.10;;;6.60;;
16689;SDS011;8458;52.220;9.884;2023-03-01T03:17:17;7.10;;;6.60;;
16689;SDS011;8458;52.220;9.884;2023-03-01T03:19:45;7.10;;;6.50;;
16689;SDS011;8458;52.220;9.884;2023-03-01T03:22:12;6.97;;;6.47;;
16689;SDS011;8458;52.220;9.884;2023-03-01T03:24:39;7.47;;;6.93;;
16689;SDS011;8458;52.220;9.884;2023-03-01T03:27:05;7.30;;;6.80;;
16689;SDS011;8458;52.220;9.884;2023-03-01T03:29:33;7.27;;;6.77;;
16689;SDS011;8458;52.220;9.884;2023-03-01T03:31:59;6.37;;;5.97;;
16689;SDS011;8458;52.220;9.884;2023-03-01T03:34:26;7.27;;;6.77;;
16689;SDS011;8458;52.220;9.884;2023-03-01T03:36:54;7.00;;;6.50;;
16689;SDS011;8458;52.220;9.884;2023-03-01T03:39:24;7.17;;;6.67;;
16689;SDS011;8458;52.220;9.884;2023-03-01T03:41:51;7.23;;;6.80;;
16689;SDS011;8458;52.220;9.884;2023-03-01T03:44:17;7.13;;;6.53;;
16689;SDS011;8458;52.220;9.884;2023-03-01T03:46:44;7.70;;;7.20;;
16689;SDS011;8458;52.220;9.884;2023-03-01T03:49:10;7.43;;;6.83;;
16689;SDS011;8458;52.220;9.884;2023-03-01T03:51:36;6.93;;;6.33;;
16689;SDS011;8458;52.220;9.884;2023-03-01T03:54:04;7.53;;;6.93;;
16689;SDS011;8458;52.220;9.884;2023-03-01T03:56:31;6.90;;;6.40;;
16689;SDS011;8458;52.220;9.884;2023-03-01T03:58:57;8.00;;;7.43;;
16689;SDS011;8458;52.220;9.884;2023-03-01T04:01:24;7.27;;;6.77;;
16689;SDS011;8458;52.220;9.884;2023-03-01T04:03:50;7.30;;;6.73;;
16689;SDS011;8458;52.220;9.884;2023-03-01T04:06:19;7.20;;;6.53;;
16689;SDS011;8458;52.220;9.884;2023-03-01T04:08:45;7.30;;;6.80;;
16689;SDS011;8458;52.220;9.884;2023-03-01T04:11:17;7.07;;;6.57;;
16689;SDS011;8458;52.220;9.884;2023-03-01T04:13:53;7.30;;;6.60;;
16689;SDS011;8458;52.220;9.884;2023-03-01T04:16:21;7.10;;;6.60;;
16689;SDS011;8458;52.220;9.884;2023-03-01T04:18:48;6.80;;;6.33;;
16689;SDS011;8458;52.220;9.884;2023-03-01T04:21:15;7.30;;;6.77;;
16689;SDS011;8458;52.220;9.884;2023-03-01T04:23:42;7.20;;;6.70;;
16689;SDS011;8458;52.220;9.884;2023-03-01T04:26:08;7.07;;;6.57;;
16689;SDS011;8458;52.220;9.884;2023-03-01T04:28:37;6.73;;;6.23;;
16689;SDS011;8458;52.220;9.884;2023-03-01T04:31:05;7.07;;;6.57;;
16689;SDS011;8458;52.220;9.884;2023-03-01T04:33:38;7.07;;;6.57;;
16689;SDS011;8458;52.220;9.884;2023-03-01T04:36:07;7.17;;;6.67;;
16689;SDS011;8458;52.220;9.884;2023-03-01T04:38:35;7.63;;;7.13;;
16689;SDS011;8458;52.220;9.884;2023-03-01T04:41:02;7.93;;;7.43;;
16689;SDS011;8458;52.220;9.884;2023-03-01T04:43:29;8.33;;;7.73;;
16689;SDS011;8458;52.220;9.884;2023-03-01T04:46:01;8.00;;;7.40;;
16689;SDS011;8458;52.220;9.884;2023-03-01T04:48:28;7.97;;;7.37;;
16689;SDS011;8458;52.220;9.884;2023-03-01T04:50:55;7.57;;;7.07;;
16689;SDS011;8458;52.220;9.884;2023-03-01T04:53:22;7.90;;;7.30;;
16689;SDS011;8458;52.220;9.884;2023-03-01T04:55:48;7.80;;;7.30;;
16689;SDS011;8458;52.220;9.884;2023-03-01T04:58:15;7.53;;;7.03;;
16689;SDS011;8458;52.220;9.884;2023-03-01T05:00:41;6.63;;;6.13;;
16689;SDS011;8458;52.220;9.884;2023-03-01T05:03:09;7.50;;;7.00;;
16689;SDS011;8458;52.220;9.884;2023-03-01T05:05:36;7.63;;;7.07;;
16689;SDS011;8458;52.220;9.884;2023-03-01T05:08:05;7.93;;;7.33;;
16689;SDS011;8458;52.220;9.884;2023-03-01T05:10:34;7.23;;;6.73;;
16689;SDS011;8458;52.220;9.884;2023-03-01T05:13:03;7.70;;;7.10;;
16689;SDS011;8458;52.220;9.884;2023-03-01T05:15:30;7.70;;;7.00;;
16689;SDS011;8458;52.220;9.884;2023-03-01T05:17:58;7.20;;;6.70;;
16689;SDS011;8458;52.220;9.884;2023-03-01T05:20:27;8.40;;;7.80;;
16689;SDS011;8458;52.220;9.884;2023-03-01T05:22:56;8.07;;;7.47;;
16689;SDS011;8458;52.220;9.884;2023-03-01T05:25:25;8.27;;;7.67;;
16689;SDS011;8458;52.220;9.884;2023-03-01T05:27:57;7.73;;;7.23;;
16689;SDS011;8458;52.220;9.884;2023-03-01T05:30:24;8.00;;;7.40;;
16689;SDS011;8458;52.220;9.884;2023-03-01T05:32:50;7.47;;;6.97;;
16689;SDS011;8458;52.220;9.884;2023-03-01T05:35:21;7.60;;;7.10;;
16689;SDS011;8458;52.220;9.884;2023-03-01T05:37:49;7.53;;;7.03;;
16689;SDS011;8458;52.220;9.884;2023-03-01T05:40:17;7.40;;;6.87;;
16689;SDS011;8458;52.220;9.884;2023-03-01T05:42:45;8.43;;;7.73;;
16689;SDS011;8458;52.220;9.884;2023-03-01T05:45:12;8.00;;;7.30;;
16689;SDS011;8458;52.220;9.884;2023-03-01T05:47:40;8.57;;;7.80;;
16689;SDS011;8458;52.220;9.884;2023-03-01T05:50:10;7.33;;;6.87;;
16689;SDS011;8458;52.220;9.884;2023-03-01T05:52:37;7.10;;;6.60;;
16689;SDS011;8458;52.220;9.884;2023-03-01T05:55:06;7.60;;;7.00;;
16689;SDS011;8458;52.220;9.884;2023-03-01T05:57:33;8.00;;;7.40;;
16689;SDS011;8458;52.220;9.884;2023-03-01T05:59:59;7.73;;;7.03;;
16689;SDS011;8458;52.220;9.884;2023-03-01T06:02:26;7.97;;;7.37;;
16689;SDS011;8458;52.220;9.884;2023-03-01T06:04:54;7.97;;;7.30;;
16689;SDS011;8458;52.220;9.884;2023-03-01T06:07:20;7.57;;;6.97;;
16689;SDS011;8458;52.220;9.884;2023-03-01T06:09:47;7.57;;;7.07;;
16689;SDS011;8458;52.220;9.884;2023-03-01T06:12:14;7.90;;;7.40;;
16689;SDS011;8458;52.220;9.884;2023-03-01T06:14:41;7.37;;;6.87;;
16689;SDS011;8458;52.220;9.884;2023-03-01T06:17:07;7.77;;;7.17;;
16689;SDS011;8458;52.220;9.884;2023-03-01T06:19:34;7.67;;;7.17;;
16689;SDS011;8458;52.220;9.884;2023-03-01T06:22:00;8.57;;;7.87;;
16689;SDS011;8458;52.220;9.884;2023-03-01T06:24:27;8.00;;;7.40;;
16689;SDS011;8458;52.220;9.884;2023-03-01T06:26:54;7.43;;;6.93;;
16689;SDS011;8458;52.220;9.884;2023-03-01T06:29:22;8.17;;;7.47;;
16689;SDS011;8458;52.220;9.884;2023-03-01T06:31:48;7.77;;;7.27;;
16689;SDS011;8458;52.220;9.884;2023-03-01T06:34:15;7.97;;;7.37;;
16689;SDS011;8458;52.220;9.884;2023-03-01T06:36:41;7.60;;;7.03;;
16689;SDS011;8458;52.220;9.884;2023-03-01T06:39:08;7.30;;;6.80;;
16689;SDS011;8458;52.220;9.884;2023-03-01T06:41:34;8.67;;;8.03;;
16689;SDS011;8458;52.220;9.884;2023-03-01T06:44:01;8.70;;;8.00;;
16689;SDS011;8458;52.220;9.884;2023-03-01T06:46:30;8.47;;;7.77;;
16689;SDS011;8458;52.220;9.884;2023-03-01T06:48:57;8.77;;;8.17;;
16689;SDS011;8458;52.220;9.884;2023-03-01T06:51:23;9.53;;;8.80;;
16689;SDS011;8458;52.220;9.884;2023-03-01T06:53:50;9.37;;;8.67;;
16689;SDS011;8458;52.220;9.884;2023-03-01T06:56:16;8.97;;;8.17;;
16689;SDS011;8458;52.220;9.884;2023-03-01T06:58:43;8.80;;;8.20;;
16689;SDS011;8458;52.220;9.884;2023-03-01T07:01:09;8.63;;;7.93;;
16689;SDS011;8458;52.220;9.884;2023-03-01T07:03:37;8.87;;;8.27;;
16689;SDS011;8458;52.220;9.884;2023-03-01T07:06:03;8.67;;;8.07;;
16689;SDS011;8458;52.220;9.884;2023-03-01T07:08:30;8.27;;;7.70;;
16689;SDS011;8458;52.220;9.884;2023-03-01T07:10:57;8.57;;;7.87;;
16689;SDS011;8458;52.220;9.884;2023-03-01T07:13:24;8.77;;;8.17;;
16689;SDS011;8458;52.220;9.884;2023-03-01T07:15:50;8.83;;;8.13;;
16689;SDS011;8458;52.220;9.884;2023-03-01T07:18:17;8.93;;;8.33;;
16689;SDS011;8458;52.220;9.884;2023-03-01T07:20:45;8.10;;;7.50;;
16689;SDS011;8458;52.220;9.884;2023-03-01T07:23:11;11.43;;;10.43;;
16689;SDS011;8458;52.220;9.884;2023-03-01T07:25:37;20.77;;;18.67;;
16689;SDS011;8458;52.220;9.884;2023-03-01T07:28:04;19.00;;;17.17;;
16689;SDS011;8458;52.220;9.884;2023-03-01T07:30:31;24.40;;;19.87;;
16689;SDS011;8458;52.220;9.884;2023-03-01T07:32:58;21.07;;;18.87;;
16689;SDS011;8458;52.220;9.884;2023-03-01T07:35:24;15.33;;;13.83;;
16689;SDS011;8458;52.220;9.884;2023-03-01T07:37:54;14.73;;;13.30;;
16689;SDS011;8458;52.220;9.884;2023-03-01T07:40:20;19.30;;;17.37;;
16689;SDS011;8458;52.220;9.884;2023-03-01T07:42:46;18.27;;;16.37;;
16689;SDS011;8458;52.220;9.884;2023-03-01T07:45:13;14.70;;;13.40;;
16689;SDS011;8458;52.220;9.884;2023-03-01T07:47:39;11.17;;;10.37;;
16689;SDS011;8458;52.220;9.884;2023-03-01T07:50:06;10.63;;;9.83;;
16689;SDS011;8458;52.220;9.884;2023-03-01T07:52:33;9.77;;;9.13;;
16689;SDS011;8458;52.220;9.884;2023-03-01T07:55:01;10.00;;;9.20;;
16689;SDS011;8458;52.220;9.884;2023-03-01T07:57:28;10.23;;;9.43;;
16689;SDS011;8458;52.220;9.884;2023-03-01T07:59:54;9.97;;;9.17;;
16689;SDS011;8458;52.220;9.884;2023-03-01T08:02:20;9.80;;;9.10;;
16689;SDS011;8458;52.220;9.884;2023-03-01T08:04:47;10.30;;;9.37;;
16689;SDS011;8458;52.220;9.884;2023-03-01T08:07:13;9.40;;;8.80;;
16689;SDS011;8458;52.220;9.884;2023-03-01T08:09:40;10.07;;;9.37;;
16689;SDS011;8458;52.220;9.884;2023-03-01T08:12:08;13.80;;;12.57;;
16689;SDS011;8458;52.220;9.884;2023-03-01T08:14:34;14.43;;;13.00;;
16689;SDS011;8458;52.220;9.884;2023-03-01T08:17:01;11.93;;;10.93;;
16689;SDS011;8458;52.220;9.884;2023-03-01T08:19:28;12.80;;;11.93;;
16689;SDS011;8458;52.220;9.884;2023-03-01T08:21:54;107.33;;;50.40;;
16689;SDS011;8458;52.220;9.884;2023-03-01T08:24:23;16.63;;;15.33;;
16689;SDS011;8458;52.220;9.884;2023-03-01T08:26:50;11.67;;;10.77;;
16689;SDS011;8458;52.220;9.884;2023-03-01T08:29:17;10.47;;;9.77;;
16689;SDS011;8458;52.220;9.884;2023-03-01T08:31:44;10.10;;;9.37;;
16689;SDS011;8458;52.220;9.884;2023-03-01T08:34:11;10.13;;;9.50;;
16689;SDS011;8458;52.220;9.884;2023-03-01T08:36:39;10.73;;;10.03;;
16689;SDS011;8458;52.220;9.884;2023-03-01T08:39:07;9.83;;;9.23;;
16689;SDS011;8458;52.220;9.884;2023-03-01T08:41:35;10.43;;;9.80;;
16689;SDS011;8458;52.220;9.884;2023-03-01T08:44:02;11.00;;;10.30;;
16689;SDS011;8458;52.220;9.884;2023-03-01T08:46:30;10.50;;;9.70;;
16689;SDS011;8458;52.220;9.884;2023-03-01T08:48:59;10.37;;;9.30;;
16689;SDS011;8458;52.220;9.884;2023-03-01T08:51:25;10.33;;;9.50;;
16689;SDS011;8458;52.220;9.884;2023-03-01T08:53:52;11.00;;;9.73;;
16689;SDS011;8458;52.220;9.884;2023-03-01T08:56:18;11.17;;;10.13;;
16689;SDS011;8458;52.220;9.884;2023-03-01T08:58:45;10.43;;;9.30;;
16689;SDS011;8458;52.220;9.884;2023-03-01T09:01:13;13.30;;;8.97;;
16689;SDS011;8458;52.220;9.884;2023-03-01T09:03:43;10.83;;;9.53;;
16689;SDS011;8458;52.220;9.884;2023-03-01T09:06:10;11.07;;;9.67;;
16689;SDS011;8458;52.220;9.884;2023-03-01T09:08:37;11.27;;;10.20;;
16689;SDS011;8458;52.220;9.884;2023-03-01T09:11:06;10.87;;;9.27;;
16689;SDS011;8458;52.220;9.884;2023-03-01T09:13:35;12.37;;;10.67;;
16689;SDS011;8458;52.220;9.884;2023-03-01T09:16:02;12.43;;;11.27;;
16689;SDS011;8458;52.220;9.884;2023-03-01T09:18:30;11.90;;;10.90;;
16689;SDS011;8458;52.220;9.884;2023-03-01T09:21:02;15.20;;;10.63;;
16689;SDS011;8458;52.220;9.884;2023-03-01T09:23:32;17.17;;;10.73;;
16689;SDS011;8458;52.220;9.884;2023-03-01T09:25:59;12.83;;;10.13;;
16689;SDS011;8458;52.220;9.884;2023-03-01T09:28:25;9.93;;;9.03;;
16689;SDS011;8458;52.220;9.884;2023-03-01T09:30:52;9.57;;;8.53;;
16689;SDS011;8458;52.220;9.884;2023-03-01T09:33:18;8.60;;;7.83;;
16689;SDS011;8458;52.220;9.884;2023-03-01T09:35:45;8.73;;;7.93;;
16689;SDS011;8458;52.220;9.884;2023-03-01T09:38:14;8.23;;;7.47;;
16689;SDS011;8458;52.220;9.884;2023-03-01T09:40:42;8.43;;;7.73;;
16689;SDS011;8458;52.220;9.884;2023-03-01T09:43:13;8.33;;;7.47;;
16689;SDS011;8458;52.220;9.884;2023-03-01T09:45:44;8.33;;;7.57;;
16689;SDS011;8458;52.220;9.884;2023-03-01T09:48:16;7.77;;;7.13;;
16689;SDS011;8458;52.220;9.884;2023-03-01T09:50:47;7.60;;;7.00;;
16689;SDS011;8458;52.220;9.884;2023-03-01T09:53:16;7.17;;;6.67;;
16689;SDS011;8458;52.220;9.884;2023-03-01T09:55:45;6.70;;;6.27;;
16689;SDS011;8458;52.220;9.884;2023-03-01T09:58:23;7.30;;;6.60;;
16689;SDS011;8458;52.220;9.884;2023-03-01T10:00:57;7.83;;;7.23;;
16689;SDS011;8458;52.220;9.884;2023-03-01T10:03:31;7.23;;;6.73;;
16689;SDS011;8458;52.220;9.884;2023-03-01T10:06:04;6.47;;;5.97;;
16689;SDS011;8458;52.220;9.884;2023-03-01T10:08:40;7.67;;;7.07;;
16689;SDS011;8458;52.220;9.884;2023-03-01T10:11:21;8.50;;;7.10;;
16689;SDS011;8458;52.220;9.884;2023-03-01T10:13:52;6.90;;;6.37;;
16689;SDS011;8458;52.220;9.884;2023-03-01T10:16:26;6.67;;;6.17;;
16689;SDS011;8458;52.220;9.884;2023-03-01T10:19:00;6.60;;;6.10;;
16689;SDS011;8458;52.220;9.884;2023-03-01T10:21:29;6.67;;;6.17;;
16689;SDS011;8458;52.220;9.884;2023-03-01T10:24:01;6.43;;;6.00;;
16689;SDS011;8458;52.220;9.884;2023-03-01T10:26:39;6.07;;;5.57;;
16689;SDS011;8458;52.220;9.884;2023-03-01T10:29:14;6.30;;;5.80;;
16689;SDS011;8458;52.220;9.884;2023-03-01T10:31:42;6.53;;;6.03;;
16689;SDS011;8458;52.220;9.884;2023-03-01T10:34:11;6.67;;;6.17;;
16689;SDS011;8458;52.220;9.884;2023-03-01T10:36:39;5.87;;;5.47;;
16689;SDS011;8458;52.220;9.884;2023-03-01T10:39:13;5.97;;;5.47;;
16689;SDS011;8458;52.220;9.884;2023-03-01T10:41:52;5.63;;;5.23;;
16689;SDS011;8458;52.220;9.884;2023-03-01T10:44:34;5.40;;;5.10;;
16689;SDS011;8458;52.220;9.884;2023-03-01T10:47:09;5.47;;;5.07;;
16689;SDS011;8458;52.220;9.884;2023-03-01T10:49:46;5.43;;;5.03;;
16689;SDS011;8458;52.220;9.884;2023-03-01T10:52:19;4.97;;;4.57;;
16689;SDS011;8458;52.220;9.884;2023-03-01T10:54:53;5.00;;;4.70;;
16689;SDS011;8458;52.220;9.884;2023-03-01T10:57:24;5.50;;;5.00;;
16689;SDS011;8458;52.220;9.884;2023-03-01T11:00:00;5.63;;;5.20;;
16689;SDS011;8458;52.220;9.884;2023-03-01T11:02:29;5.90;;;5.40;;
16689;SDS011;8458;52.220;9.884;2023-03-01T11:04:59;5.30;;;4.83;;
16689;SDS011;8458;52.220;9.884;2023-03-01T11:07:27;5.13;;;4.73;;
16689;SDS011;8458;52.220;9.884;2023-03-01T11:09:55;5.03;;;4.63;;
16689;SDS011;8458;52.220;9.884;2023-03-01T11:12:22;5.57;;;5.07;;
16689;SDS011;8458;52.220;9.884;2023-03-01T11:14:50;5.27;;;4.70;;
16689;SDS011;8458;52.220;9.884;2023-03-01T11:17:21;4.50;;;4.13;;
16689;SDS011;8458;52.220;9.884;2023-03-01T11:20:01;4.60;;;4.30;;
16689;SDS011;8458;52.220;9.884;2023-03-01T11:22:31;5.17;;;4.73;;
16689;SDS011;8458;52.220;9.884;2023-03-01T11:25:02;5.43;;;4.83;;
16689;SDS011;8458;52.220;9.884;2023-03-01T11:27:30;4.43;;;4.13;;
16689;SDS011;8458;52.220;9.884;2023-03-01T11:29:59;4.83;;;4.53;;
16689;SDS011;8458;52.220;9.884;2023-03-01T11:32:33;4.07;;;3.77;;
16689;SDS011;8458;52.220;9.884;2023-03-01T11:35:09;5.13;;;4.73;;
16689;SDS011;8458;52.220;9.884;2023-03-01T11:37:41;4.20;;;3.90;;
16689;SDS011;8458;52.220;9.884;2023-03-01T11:40:20;4.87;;;4.47;;
16689;SDS011;8458;52.220;9.884;2023-03-01T11:42:53;5.07;;;4.67;;
16689;SDS011;8458;52.220;9.884;2023-03-01T11:45:28;4.40;;;4.10;;
16689;SDS011;8458;52.220;9.884;2023-03-01T11:48:14;4.90;;;4.33;;
16689;SDS011;8458;52.220;9.884;2023-03-01T11:51:01;4.40;;;4.00;;
16689;SDS011;8458;52.220;9.884;2023-03-01T11:53:41;3.83;;;3.53;;
16689;SDS011;8458;52.220;9.884;2023-03-01T11:56:23;4.37;;;3.27;;
16689;SDS011;8458;52.220;9.884;2023-03-01T11:59:02;4.27;;;3.97;;
16689;SDS011;8458;52.220;9.884;2023-03-01T12:01:43;3.90;;;3.60;;
16689;SDS011;8458;52.220;9.884;2023-03-01T12:04:29;4.23;;;3.93;;
16689;SDS011;8458;52.220;9.884;2023-03-01T12:07:10;4.60;;;4.30;;
16689;SDS011;8458;52.220;9.884;2023-03-01T12:09:46;4.20;;;3.80;;
16689;SDS011;8458;52.220;9.884;2023-03-01T12:12:29;4.00;;;3.60;;
16689;SDS011;8458;52.220;9.884;2023-03-01T12:15:12;3.40;;;3.20;;
16689;SDS011;8458;52.220;9.884;2023-03-01T12:20:51;3.93;;;3.57;;
16689;SDS011;8458;52.220;9.884;2023-03-01T12:23:39;3.93;;;3.63;;
16689;SDS011;8458;52.220;9.884;2023-03-01T12:26:26;3.30;;;2.97;;
16689;SDS011;8458;52.220;9.884;2023-03-01T12:32:00;3.60;;;3.30;;
16689;SDS011;8458;52.220;9.884;2023-03-01T12:34:48;3.80;;;3.50;;
16689;SDS011;8458;52.220;9.884;2023-03-01T12:37:29;3.70;;;3.40;;
16689;SDS011;8458;52.220;9.884;2023-03-01T12:40:14;4.17;;;3.77;;
16689;SDS011;8458;52.220;9.884;2023-03-01T12:42:54;4.83;;;4.40;;
16689;SDS011;8458;52.220;9.884;2023-03-01T12:45:34;3.90;;;3.60;;
16689;SDS011;8458;52.220;9.884;2023-03-01T12:48:31;6.80;;;4.00;;
16689;SDS011;8458;52.220;9.884;2023-03-01T12:51:06;3.20;;;2.90;;
16689;SDS011;8458;52.220;9.884;2023-03-01T12:53:37;4.67;;;3.27;;
16689;SDS011;8458;52.220;9.884;2023-03-01T12:56:08;4.20;;;3.90;;
16689;SDS011;8458;52.220;9.884;2023-03-01T12:58:39;3.90;;;3.60;;
16689;SDS011;8458;52.220;9.884;2023-03-01T13:01:14;3.90;;;3.60;;
16689;SDS011;8458;52.220;9.884;2023-03-01T13:04:02;3.97;;;3.67;;
16689;SDS011;8458;52.220;9.884;2023-03-01T13:06:41;3.47;;;3.17;;
16689;SDS011;8458;52.220;9.884;2023-03-01T13:09:16;4.17;;;3.87;;
16689;SDS011;8458;52.220;9.884;2023-03-01T13:11:48;4.20;;;3.90;;
16689;SDS011;8458;52.220;9.884;2023-03-01T13:17:20;3.47;;;3.17;;
16689;SDS011;8458;52.220;9.884;2023-03-01T13:19:57;2.97;;;2.77;;
16689;SDS011;8458;52.220;9.884;2023-03-01T13:22:25;4.07;;;3.37;;
16689;SDS011;8458;52.220;9.884;2023-03-01T13:25:00;3.40;;;3.10;;
16689;SDS011;8458;52.220;9.884;2023-03-01T13:27:28;2.90;;;2.70;;
16689;SDS011;8458;52.220;9.884;2023-03-01T13:29:55;3.63;;;3.10;;
16689;SDS011;8458;52.220;9.884;2023-03-01T13:32:26;3.20;;;2.93;;
16689;SDS011;8458;52.220;9.884;2023-03-01T13:34:55;3.00;;;2.80;;
16689;SDS011;8458;52.220;9.884;2023-03-01T13:37:24;2.90;;;2.70;;
16689;SDS011;8458;52.220;9.884;2023-03-01T13:39:54;2.87;;;2.60;;
16689;SDS011;8458;52.220;9.884;2023-03-01T13:42:31;3.37;;;3.07;;
16689;SDS011;8458;52.220;9.884;2023-03-01T13:45:00;3.03;;;2.73;;
16689;SDS011;8458;52.220;9.884;2023-03-01T13:47:28;3.00;;;2.80;;
16689;SDS011;8458;52.220;9.884;2023-03-01T13:49:56;3.37;;;3.07;;
16689;SDS011;8458;52.220;9.884;2023-03-01T13:52:29;2.50;;;2.30;;
16689;SDS011;8458;52.220;9.884;2023-03-01T13:55:14;2.90;;;2.70;;
16689;SDS011;8458;52.220;9.884;2023-03-01T13:57:46;3.30;;;3.00;;
16689;SDS011;8458;52.220;9.884;2023-03-01T14:00:29;3.30;;;2.80;;
16689;SDS011;8458;52.220;9.884;2023-03-01T14:05:57;3.33;;;2.63;;
16689;SDS011;8458;52.220;9.884;2023-03-01T14:08:26;2.80;;;2.60;;
16689;SDS011;8458;52.220;9.884;2023-03-01T14:11:02;3.30;;;2.50;;
16689;SDS011;8458;52.220;9.884;2023-03-01T14:16:51;3.70;;;3.40;;
16689;SDS011;8458;52.220;9.884;2023-03-01T14:19:26;4.07;;;3.67;;
16689;SDS011;8458;52.220;9.884;2023-03-01T14:21:59;3.00;;;2.63;;
16689;SDS011;8458;52.220;9.884;2023-03-01T14:24:37;2.63;;;2.43;;
16689;SDS011;8458;52.220;9.884;2023-03-01T14:27:09;3.60;;;3.30;;
16689;SDS011;8458;52.220;9.884;2023-03-01T14:29:38;4.20;;;3.33;;
16689;SDS011;8458;52.220;9.884;2023-03-01T14:32:10;2.97;;;2.73;;
16689;SDS011;8458;52.220;9.884;2023-03-01T14:34:43;3.70;;;3.33;;
16689;SDS011;8458;52.220;9.884;2023-03-01T14:37:11;3.20;;;2.73;;
16689;SDS011;8458;52.220;9.884;2023-03-01T14:39:44;4.00;;;2.87;;
16689;SDS011;8458;52.220;9.884;2023-03-01T14:42:11;2.67;;;2.47;;
16689;SDS011;8458;52.220;9.884;2023-03-01T14:44:40;2.83;;;2.40;;
16689;SDS011;8458;52.220;9.884;2023-03-01T14:47:10;7.03;;;5.50;;
16689;SDS011;8458;52.220;9.884;2023-03-01T14:49:41;3.80;;;3.40;;
16689;SDS011;8458;52.220;9.884;2023-03-01T14:52:17;5.73;;;4.50;;
16689;SDS011;8458;52.220;9.884;2023-03-01T14:54:46;4.33;;;3.93;;
16689;SDS011;8458;52.220;9.884;2023-03-01T14:57:15;3.93;;;3.63;;
16689;SDS011;8458;52.220;9.884;2023-03-01T14:59:43;2.60;;;2.40;;
16689;SDS011;8458;52.220;9.884;2023-03-01T15:02:11;2.67;;;2.47;;
16689;SDS011;8458;52.220;9.884;2023-03-01T15:04:43;2.90;;;2.63;;
16689;SDS011;8458;52.220;9.884;2023-03-01T15:07:12;3.67;;;3.23;;
16689;SDS011;8458;52.220;9.884;2023-03-01T15:09:40;4.67;;;4.27;;
16689;SDS011;8458;52.220;9.884;2023-03-01T15:15:01;8.60;;;6.07;;
16689;SDS011;8458;52.220;9.884;2023-03-01T15:18:03;3.27;;;2.97;;
16689;SDS011;8458;52.220;9.884;2023-03-01T15:20:34;2.70;;;2.50;;
16689;SDS011;8458;52.220;9.884;2023-03-01T15:23:01;2.80;;;2.60;;
16689;SDS011;8458;52.220;9.884;2023-03-01T15:25:29;4.07;;;2.30;;
16689;SDS011;8458;52.220;9.884;2023-03-01T15:27:58;2.23;;;2.00;;
16689;SDS011;8458;52.220;9.884;2023-03-01T15:30:27;2.30;;;2.10;;
16689;SDS011;8458;52.220;9.884;2023-03-01T15:36:00;2.50;;;2.27;;